sensor_id;sensor_type;location;lat;lon;timestamp;P1;durP1;ratioP1;P2;durP2;ratioP2
20832;SDS011;56075;51.264;7.150;2022-07-19T00:00:28;6.15;;;3.30;;
20832;SDS011;56075;51.264;7.150;2022-07-19T00:02:59;5.75;;;3.33;;
20832;SDS011;56075;51.264;7.150;2022-07-19T00:05:33;7.40;;;3.47;;
20832;SDS011;56075;51.264;7.150;2022-07-19T00:08:04;10.05;;;3.15;;
20832;SDS011;56075;51.264;7.150;2022-07-19T00:10:36;7.53;;;2.78;;
20832;SDS011;56075;51.264;7.150;2022-07-19T00:13:07;5.90;;;2.72;;
20832;SDS011;56075;51.264;7.150;2022-07-19T00:15:38;4.55;;;2.33;;
20832;SDS011;56075;51.264;7.150;2022-07-19T00:18:10;6.18;;;2.95;;
20832;SDS011;56075;51.264;7.150;2022-07-19T00:20:41;6.50;;;2.38;;
20832;SDS011;56075;51.264;7.150;2022-07-19T00:23:12;6.65;;;3.20;;
20832;SDS011;56075;51.264;7.150;2022-07-19T00:25:43;8.02;;;3.25;;
20832;SDS011;56075;51.264;7.150;2022-07-19T00:28:15;5.60;;;2.88;;
20832;SDS011;56075;51.264;7.150;2022-07-19T00:30:46;10.23;;;2.83;;
20832;SDS011;56075;51.264;7.150;2022-07-19T00:33:17;5.43;;;3.15;;
20832;SDS011;56075;51.264;7.150;2022-07-19T00:35:48;6.80;;;2.80;;
20832;SDS011;56075;51.264;7.150;2022-07-19T00:38:20;6.75;;;3.13;;
20832;SDS011;56075;51.264;7.150;2022-07-19T00:40:51;7.97;;;2.90;;
20832;SDS011;56075;51.264;7.150;2022-07-19T00:43:22;6.50;;;3.05;;
20832;SDS011;56075;51.264;7.150;2022-07-19T00:45:53;7.53;;;3.00;;
20832;SDS011;56075;51.264;7.150;2022-07-19T00:48:24;7.90;;;3.30;;
20832;SDS011;56075;51.264;7.150;2022-07-19T00:50:56;6.60;;;2.97;;
20832;SDS011;56075;51.264;7.150;2022-07-19T00:53:27;6.22;;;3.13;;
20832;SDS011;56075;51.264;7.150;2022-07-19T00:55:59;6.82;;;3.05;;
20832;SDS011;56075;51.264;7.150;2022-07-19T00:58:33;7.97;;;3.03;;
20832;SDS011;56075;51.264;7.150;2022-07-19T01:01:06;6.05;;;2.30;;
20832;SDS011;56075;51.264;7.150;2022-07-19T01:03:39;3.75;;;2.05;;
20832;SDS011;56075;51.264;7.150;2022-07-19T01:06:10;5.70;;;2.40;;
20832;SDS011;56075;51.264;7.150;2022-07-19T01:08:42;5.78;;;2.65;;
20832;SDS011;56075;51.264;7.150;2022-07-19T01:11:13;8.07;;;2.88;;
20832;SDS011;56075;51.264;7.150;2022-07-19T01:13:44;6.68;;;3.13;;
20832;SDS011;56075;51.264;7.150;2022-07-19T01:16:16;7.75;;;2.92;;
20832;SDS011;56075;51.264;7.150;2022-07-19T01:18:47;5.05;;;2.90;;
20832;SDS011;56075;51.264;7.150;2022-07-19T01:21:21;4.70;;;2.80;;
20832;SDS011;56075;51.264;7.150;2022-07-19T01:23:54;4.53;;;2.33;;
20832;SDS011;56075;51.264;7.150;2022-07-19T01:26:25;5.65;;;3.00;;
20832;SDS011;56075;51.264;7.150;2022-07-19T01:28:56;8.40;;;2.80;;
20832;SDS011;56075;51.264;7.150;2022-07-19T01:31:27;5.65;;;2.75;;
20832;SDS011;56075;51.264;7.150;2022-07-19T01:33:59;6.35;;;2.83;;
20832;SDS011;56075;51.264;7.150;2022-07-19T01:36:30;4.22;;;2.67;;
20832;SDS011;56075;51.264;7.150;2022-07-19T01:39:01;4.30;;;2.50;;
20832;SDS011;56075;51.264;7.150;2022-07-19T01:41:33;6.45;;;2.60;;
20832;SDS011;56075;51.264;7.150;2022-07-19T01:44:04;9.25;;;2.63;;
20832;SDS011;56075;51.264;7.150;2022-07-19T01:46:35;4.45;;;2.50;;
20832;SDS011;56075;51.264;7.150;2022-07-19T01:49:07;5.20;;;2.47;;
20832;SDS011;56075;51.264;7.150;2022-07-19T01:51:38;4.75;;;2.20;;
20832;SDS011;56075;51.264;7.150;2022-07-19T01:54:09;8.07;;;2.72;;
20832;SDS011;56075;51.264;7.150;2022-07-19T01:56:41;4.95;;;2.92;;
20832;SDS011;56075;51.264;7.150;2022-07-19T01:59:13;5.75;;;2.60;;
20832;SDS011;56075;51.264;7.150;2022-07-19T02:01:45;6.85;;;2.40;;
20832;SDS011;56075;51.264;7.150;2022-07-19T02:04:16;6.40;;;2.47;;
20832;SDS011;56075;51.264;7.150;2022-07-19T02:06:47;6.25;;;2.72;;
20832;SDS011;56075;51.264;7.150;2022-07-19T02:09:19;5.57;;;2.10;;
20832;SDS011;56075;51.264;7.150;2022-07-19T02:11:50;3.85;;;2.10;;
20832;SDS011;56075;51.264;7.150;2022-07-19T02:14:22;4.40;;;2.47;;
20832;SDS011;56075;51.264;7.150;2022-07-19T02:16:53;7.38;;;2.92;;
20832;SDS011;56075;51.264;7.150;2022-07-19T02:19:24;5.38;;;2.60;;
20832;SDS011;56075;51.264;7.150;2022-07-19T02:21:56;7.05;;;3.22;;
20832;SDS011;56075;51.264;7.150;2022-07-19T02:24:27;6.53;;;2.47;;
20832;SDS011;56075;51.264;7.150;2022-07-19T02:26:58;4.95;;;2.63;;
20832;SDS011;56075;51.264;7.150;2022-07-19T02:29:29;7.55;;;2.78;;
20832;SDS011;56075;51.264;7.150;2022-07-19T02:32:01;4.88;;;2.60;;
20832;SDS011;56075;51.264;7.150;2022-07-19T02:34:33;6.05;;;2.45;;
20832;SDS011;56075;51.264;7.150;2022-07-19T02:37:05;4.82;;;2.53;;
20832;SDS011;56075;51.264;7.150;2022-07-19T02:39:36;4.38;;;2.42;;
20832;SDS011;56075;51.264;7.150;2022-07-19T02:42:07;4.40;;;2.60;;
20832;SDS011;56075;51.264;7.150;2022-07-19T02:44:38;3.90;;;2.13;;
20832;SDS011;56075;51.264;7.150;2022-07-19T02:47:09;3.88;;;2.38;;
20832;SDS011;56075;51.264;7.150;2022-07-19T02:49:41;6.65;;;2.40;;
20832;SDS011;56075;51.264;7.150;2022-07-19T02:52:12;11.00;;;2.90;;
20832;SDS011;56075;51.264;7.150;2022-07-19T02:54:43;6.07;;;2.25;;
20832;SDS011;56075;51.264;7.150;2022-07-19T02:57:15;3.72;;;2.00;;
20832;SDS011;56075;51.264;7.150;2022-07-19T02:59:46;5.60;;;2.05;;
20832;SDS011;56075;51.264;7.150;2022-07-19T03:02:17;7.55;;;2.20;;
20832;SDS011;56075;51.264;7.150;2022-07-19T03:04:49;6.57;;;2.22;;
20832;SDS011;56075;51.264;7.150;2022-07-19T03:07:20;6.10;;;2.35;;
20832;SDS011;56075;51.264;7.150;2022-07-19T03:09:52;9.80;;;2.55;;
20832;SDS011;56075;51.264;7.150;2022-07-19T03:12:23;6.53;;;2.30;;
20832;SDS011;56075;51.264;7.150;2022-07-19T03:14:54;5.78;;;2.25;;
20832;SDS011;56075;51.264;7.150;2022-07-19T03:17:25;6.60;;;2.00;;
20832;SDS011;56075;51.264;7.150;2022-07-19T03:19:57;5.07;;;1.90;;
20832;SDS011;56075;51.264;7.150;2022-07-19T03:22:28;5.18;;;2.30;;
20832;SDS011;56075;51.264;7.150;2022-07-19T03:24:59;3.38;;;2.03;;
20832;SDS011;56075;51.264;7.150;2022-07-19T03:27:33;5.78;;;2.00;;
20832;SDS011;56075;51.264;7.150;2022-07-19T03:30:05;6.63;;;3.03;;
20832;SDS011;56075;51.264;7.150;2022-07-19T03:32:37;9.27;;;2.47;;
20832;SDS011;56075;51.264;7.150;2022-07-19T03:35:08;8.50;;;2.47;;
20832;SDS011;56075;51.264;7.150;2022-07-19T03:37:40;4.70;;;2.40;;
20832;SDS011;56075;51.264;7.150;2022-07-19T03:40:11;5.10;;;2.17;;
20832;SDS011;56075;51.264;7.150;2022-07-19T03:42:43;6.60;;;2.42;;
20832;SDS011;56075;51.264;7.150;2022-07-19T03:45:14;9.10;;;2.70;;
20832;SDS011;56075;51.264;7.150;2022-07-19T03:47:45;10.60;;;2.42;;
20832;SDS011;56075;51.264;7.150;2022-07-19T03:50:17;5.63;;;2.42;;
20832;SDS011;56075;51.264;7.150;2022-07-19T03:52:48;7.70;;;2.50;;
20832;SDS011;56075;51.264;7.150;2022-07-19T03:55:19;7.95;;;2.17;;
20832;SDS011;56075;51.264;7.150;2022-07-19T03:57:51;6.20;;;2.42;;
20832;SDS011;56075;51.264;7.150;2022-07-19T04:00:22;6.53;;;2.60;;
20832;SDS011;56075;51.264;7.150;2022-07-19T04:02:53;6.03;;;2.53;;
20832;SDS011;56075;51.264;7.150;2022-07-19T04:05:25;6.63;;;2.85;;
20832;SDS011;56075;51.264;7.150;2022-07-19T04:07:56;4.68;;;2.63;;
20832;SDS011;56075;51.264;7.150;2022-07-19T04:10:28;5.20;;;2.97;;
20832;SDS011;56075;51.264;7.150;2022-07-19T04:12:59;8.50;;;2.60;;
20832;SDS011;56075;51.264;7.150;2022-07-19T04:15:31;4.55;;;2.42;;
20832;SDS011;56075;51.264;7.150;2022-07-19T04:18:03;4.93;;;2.30;;
20832;SDS011;56075;51.264;7.150;2022-07-19T04:20:34;9.15;;;2.70;;
20832;SDS011;56075;51.264;7.150;2022-07-19T04:23:05;10.07;;;2.65;;
20832;SDS011;56075;51.264;7.150;2022-07-19T04:25:37;11.55;;;2.85;;
20832;SDS011;56075;51.264;7.150;2022-07-19T04:28:13;5.53;;;2.40;;
20832;SDS011;56075;51.264;7.150;2022-07-19T04:30:45;6.25;;;2.65;;
20832;SDS011;56075;51.264;7.150;2022-07-19T04:33:17;11.10;;;3.30;;
20832;SDS011;56075;51.264;7.150;2022-07-19T04:35:49;10.15;;;2.60;;
20832;SDS011;56075;51.264;7.150;2022-07-19T04:38:21;10.65;;;2.45;;
20832;SDS011;56075;51.264;7.150;2022-07-19T04:40:52;12.27;;;3.20;;
20832;SDS011;56075;51.264;7.150;2022-07-19T04:43:24;12.20;;;2.78;;
20832;SDS011;56075;51.264;7.150;2022-07-19T04:45:55;12.50;;;2.72;;
20832;SDS011;56075;51.264;7.150;2022-07-19T04:48:30;12.43;;;3.05;;
20832;SDS011;56075;51.264;7.150;2022-07-19T04:51:01;14.10;;;3.00;;
20832;SDS011;56075;51.264;7.150;2022-07-19T04:53:34;8.73;;;2.45;;
20832;SDS011;56075;51.264;7.150;2022-07-19T04:56:05;9.65;;;3.03;;
20832;SDS011;56075;51.264;7.150;2022-07-19T04:58:37;9.48;;;2.65;;
20832;SDS011;56075;51.264;7.150;2022-07-19T05:01:08;7.43;;;2.72;;
20832;SDS011;56075;51.264;7.150;2022-07-19T05:03:40;7.38;;;2.78;;
20832;SDS011;56075;51.264;7.150;2022-07-19T05:06:11;5.47;;;2.35;;
20832;SDS011;56075;51.264;7.150;2022-07-19T05:08:42;6.00;;;2.42;;
20832;SDS011;56075;51.264;7.150;2022-07-19T05:11:14;4.97;;;2.33;;
20832;SDS011;56075;51.264;7.150;2022-07-19T05:13:45;7.78;;;3.13;;
20832;SDS011;56075;51.264;7.150;2022-07-19T05:16:17;7.78;;;3.00;;
20832;SDS011;56075;51.264;7.150;2022-07-19T05:18:48;7.75;;;3.10;;
20832;SDS011;56075;51.264;7.150;2022-07-19T05:21:20;9.43;;;3.15;;
20832;SDS011;56075;51.264;7.150;2022-07-19T05:23:51;9.45;;;3.10;;
20832;SDS011;56075;51.264;7.150;2022-07-19T05:26:22;8.07;;;3.10;;
20832;SDS011;56075;51.264;7.150;2022-07-19T05:28:54;11.52;;;3.40;;
20832;SDS011;56075;51.264;7.150;2022-07-19T05:31:25;10.82;;;3.33;;
20832;SDS011;56075;51.264;7.150;2022-07-19T05:33:57;10.52;;;3.13;;
20832;SDS011;56075;51.264;7.150;2022-07-19T05:36:28;9.98;;;3.45;;
20832;SDS011;56075;51.264;7.150;2022-07-19T05:39:00;7.63;;;2.75;;
20832;SDS011;56075;51.264;7.150;2022-07-19T05:41:33;6.97;;;3.20;;
20832;SDS011;56075;51.264;7.150;2022-07-19T05:44:05;7.13;;;3.28;;
20832;SDS011;56075;51.264;7.150;2022-07-19T05:46:36;7.22;;;2.72;;
20832;SDS011;56075;51.264;7.150;2022-07-19T05:49:11;9.25;;;3.17;;
20832;SDS011;56075;51.264;7.150;2022-07-19T05:51:43;7.68;;;3.30;;
20832;SDS011;56075;51.264;7.150;2022-07-19T05:54:14;12.38;;;3.10;;
20832;SDS011;56075;51.264;7.150;2022-07-19T05:56:48;9.18;;;3.38;;
20832;SDS011;56075;51.264;7.150;2022-07-19T05:59:19;7.50;;;3.03;;
20832;SDS011;56075;51.264;7.150;2022-07-19T06:01:52;8.85;;;3.00;;
20832;SDS011;56075;51.264;7.150;2022-07-19T06:04:24;6.95;;;2.90;;
20832;SDS011;56075;51.264;7.150;2022-07-19T06:06:55;10.00;;;3.13;;
20832;SDS011;56075;51.264;7.150;2022-07-19T06:09:27;13.07;;;3.80;;
20832;SDS011;56075;51.264;7.150;2022-07-19T06:11:59;7.88;;;2.90;;
20832;SDS011;56075;51.264;7.150;2022-07-19T06:14:30;12.45;;;3.35;;
20832;SDS011;56075;51.264;7.150;2022-07-19T06:17:01;12.57;;;3.60;;
20832;SDS011;56075;51.264;7.150;2022-07-19T06:19:33;9.25;;;2.90;;
20832;SDS011;56075;51.264;7.150;2022-07-19T06:22:05;9.05;;;3.35;;
20832;SDS011;56075;51.264;7.150;2022-07-19T06:24:36;13.90;;;3.10;;
20832;SDS011;56075;51.264;7.150;2022-07-19T06:27:08;12.02;;;3.15;;
20832;SDS011;56075;51.264;7.150;2022-07-19T06:29:39;21.60;;;3.33;;
20832;SDS011;56075;51.264;7.150;2022-07-19T06:32:11;13.73;;;3.17;;
20832;SDS011;56075;51.264;7.150;2022-07-19T06:34:43;13.23;;;2.80;;
20832;SDS011;56075;51.264;7.150;2022-07-19T06:37:14;8.43;;;2.70;;
20832;SDS011;56075;51.264;7.150;2022-07-19T06:39:45;9.23;;;2.83;;
20832;SDS011;56075;51.264;7.150;2022-07-19T06:42:17;9.38;;;2.97;;
20832;SDS011;56075;51.264;7.150;2022-07-19T06:44:49;11.75;;;2.80;;
20832;SDS011;56075;51.264;7.150;2022-07-19T06:47:20;9.73;;;3.10;;
20832;SDS011;56075;51.264;7.150;2022-07-19T06:49:51;12.98;;;2.80;;
20832;SDS011;56075;51.264;7.150;2022-07-19T06:52:23;13.25;;;2.90;;
20832;SDS011;56075;51.264;7.150;2022-07-19T06:54:55;7.88;;;2.58;;
20832;SDS011;56075;51.264;7.150;2022-07-19T06:57:27;9.02;;;2.63;;
20832;SDS011;56075;51.264;7.150;2022-07-19T06:59:58;8.07;;;2.47;;
20832;SDS011;56075;51.264;7.150;2022-07-19T07:02:30;5.05;;;2.30;;
20832;SDS011;56075;51.264;7.150;2022-07-19T07:05:01;7.03;;;2.13;;
20832;SDS011;56075;51.264;7.150;2022-07-19T07:07:34;4.72;;;1.90;;
20832;SDS011;56075;51.264;7.150;2022-07-19T07:10:06;7.90;;;2.30;;
20832;SDS011;56075;51.264;7.150;2022-07-19T07:12:39;4.95;;;2.28;;
20832;SDS011;56075;51.264;7.150;2022-07-19T07:15:11;13.20;;;2.20;;
20832;SDS011;56075;51.264;7.150;2022-07-19T07:17:42;5.25;;;2.00;;
20832;SDS011;56075;51.264;7.150;2022-07-19T07:20:13;7.38;;;2.30;;
20832;SDS011;56075;51.264;7.150;2022-07-19T07:22:45;8.02;;;2.25;;
20832;SDS011;56075;51.264;7.150;2022-07-19T07:25:16;5.47;;;2.13;;
20832;SDS011;56075;51.264;7.150;2022-07-19T07:27:48;10.48;;;2.25;;
20832;SDS011;56075;51.264;7.150;2022-07-19T07:30:20;7.63;;;2.03;;
20832;SDS011;56075;51.264;7.150;2022-07-19T07:32:51;7.85;;;2.35;;
20832;SDS011;56075;51.264;7.150;2022-07-19T07:35:23;4.88;;;2.00;;
20832;SDS011;56075;51.264;7.150;2022-07-19T07:37:54;3.20;;;2.03;;
20832;SDS011;56075;51.264;7.150;2022-07-19T07:40:25;4.45;;;1.90;;
20832;SDS011;56075;51.264;7.150;2022-07-19T07:42:57;8.82;;;2.78;;
20832;SDS011;56075;51.264;7.150;2022-07-19T07:45:29;5.25;;;2.22;;
20832;SDS011;56075;51.264;7.150;2022-07-19T07:48:00;4.78;;;2.00;;
20832;SDS011;56075;51.264;7.150;2022-07-19T07:50:33;4.78;;;2.05;;
20832;SDS011;56075;51.264;7.150;2022-07-19T07:53:04;4.15;;;2.10;;
20832;SDS011;56075;51.264;7.150;2022-07-19T07:55:35;3.90;;;1.83;;
20832;SDS011;56075;51.264;7.150;2022-07-19T07:58:10;4.93;;;1.73;;
20832;SDS011;56075;51.264;7.150;2022-07-19T08:00:42;6.55;;;2.35;;
20832;SDS011;56075;51.264;7.150;2022-07-19T08:03:13;5.90;;;1.90;;
20832;SDS011;56075;51.264;7.150;2022-07-19T08:05:44;5.95;;;2.55;;
20832;SDS011;56075;51.264;7.150;2022-07-19T08:08:18;5.40;;;2.65;;
20832;SDS011;56075;51.264;7.150;2022-07-19T08:10:49;6.32;;;1.85;;
20832;SDS011;56075;51.264;7.150;2022-07-19T08:13:20;5.35;;;1.98;;
20832;SDS011;56075;51.264;7.150;2022-07-19T08:15:52;8.20;;;2.15;;
20832;SDS011;56075;51.264;7.150;2022-07-19T08:18:23;7.25;;;2.70;;
20832;SDS011;56075;51.264;7.150;2022-07-19T08:20:54;3.22;;;2.17;;
20832;SDS011;56075;51.264;7.150;2022-07-19T08:23:26;5.00;;;1.88;;
20832;SDS011;56075;51.264;7.150;2022-07-19T08:25:57;4.80;;;2.03;;
20832;SDS011;56075;51.264;7.150;2022-07-19T08:28:28;4.88;;;2.00;;
20832;SDS011;56075;51.264;7.150;2022-07-19T08:30:59;7.10;;;2.00;;
20832;SDS011;56075;51.264;7.150;2022-07-19T08:33:33;6.93;;;1.90;;
20832;SDS011;56075;51.264;7.150;2022-07-19T08:36:04;6.57;;;1.90;;
20832;SDS011;56075;51.264;7.150;2022-07-19T08:38:37;4.60;;;1.90;;
20832;SDS011;56075;51.264;7.150;2022-07-19T08:41:09;3.05;;;1.88;;
20832;SDS011;56075;51.264;7.150;2022-07-19T08:43:41;3.40;;;1.90;;
20832;SDS011;56075;51.264;7.150;2022-07-19T08:46:12;4.03;;;2.20;;
20832;SDS011;56075;51.264;7.150;2022-07-19T08:48:43;3.67;;;1.70;;
20832;SDS011;56075;51.264;7.150;2022-07-19T08:51:17;4.35;;;1.88;;
20832;SDS011;56075;51.264;7.150;2022-07-19T08:53:49;4.80;;;1.88;;
20832;SDS011;56075;51.264;7.150;2022-07-19T08:56:21;5.05;;;1.70;;
20832;SDS011;56075;51.264;7.150;2022-07-19T08:59:11;5.53;;;1.80;;
20832;SDS011;56075;51.264;7.150;2022-07-19T09:01:42;8.82;;;1.90;;
20832;SDS011;56075;51.264;7.150;2022-07-19T09:04:15;5.63;;;2.03;;
20832;SDS011;56075;51.264;7.150;2022-07-19T09:06:47;4.95;;;2.20;;
20832;SDS011;56075;51.264;7.150;2022-07-19T09:09:26;4.63;;;1.95;;
20832;SDS011;56075;51.264;7.150;2022-07-19T09:12:00;5.32;;;2.20;;
20832;SDS011;56075;51.264;7.150;2022-07-19T09:14:34;4.50;;;2.00;;
20832;SDS011;56075;51.264;7.150;2022-07-19T09:17:08;8.00;;;2.00;;
20832;SDS011;56075;51.264;7.150;2022-07-19T09:19:43;6.38;;;2.22;;
20832;SDS011;56075;51.264;7.150;2022-07-19T09:22:16;4.68;;;1.70;;
20832;SDS011;56075;51.264;7.150;2022-07-19T09:24:50;9.45;;;1.90;;
20832;SDS011;56075;51.264;7.150;2022-07-19T09:27:22;4.50;;;2.35;;
20832;SDS011;56075;51.264;7.150;2022-07-19T09:29:56;4.35;;;1.83;;
20832;SDS011;56075;51.264;7.150;2022-07-19T09:32:30;6.40;;;1.90;;
20832;SDS011;56075;51.264;7.150;2022-07-19T09:35:01;4.57;;;2.00;;
20832;SDS011;56075;51.264;7.150;2022-07-19T09:37:33;5.90;;;2.28;;
20832;SDS011;56075;51.264;7.150;2022-07-19T09:40:07;5.10;;;1.80;;
20832;SDS011;56075;51.264;7.150;2022-07-19T09:42:43;4.30;;;1.80;;
20832;SDS011;56075;51.264;7.150;2022-07-19T09:45:15;4.03;;;1.55;;
20832;SDS011;56075;51.264;7.150;2022-07-19T09:47:50;7.00;;;1.77;;
20832;SDS011;56075;51.264;7.150;2022-07-19T09:50:22;5.13;;;1.92;;
20832;SDS011;56075;51.264;7.150;2022-07-19T09:52:53;3.13;;;1.67;;
20832;SDS011;56075;51.264;7.150;2022-07-19T09:55:24;4.50;;;1.90;;
20832;SDS011;56075;51.264;7.150;2022-07-19T09:57:56;4.68;;;1.38;;
20832;SDS011;56075;51.264;7.150;2022-07-19T10:00:29;2.80;;;1.83;;
20832;SDS011;56075;51.264;7.150;2022-07-19T10:03:01;3.97;;;1.58;;
20832;SDS011;56075;51.264;7.150;2022-07-19T10:05:33;8.32;;;1.90;;
20832;SDS011;56075;51.264;7.150;2022-07-19T10:08:05;3.80;;;1.75;;
20832;SDS011;56075;51.264;7.150;2022-07-19T10:10:36;3.25;;;1.88;;
20832;SDS011;56075;51.264;7.150;2022-07-19T10:13:08;3.40;;;1.70;;
20832;SDS011;56075;51.264;7.150;2022-07-19T10:15:40;3.00;;;1.70;;
20832;SDS011;56075;51.264;7.150;2022-07-19T10:18:16;5.90;;;1.92;;
20832;SDS011;56075;51.264;7.150;2022-07-19T10:20:50;5.97;;;1.80;;
20832;SDS011;56075;51.264;7.150;2022-07-19T10:23:26;2.15;;;1.70;;
20832;SDS011;56075;51.264;7.150;2022-07-19T10:25:58;3.85;;;2.13;;
20832;SDS011;56075;51.264;7.150;2022-07-19T10:31:06;3.88;;;1.85;;
20832;SDS011;56075;51.264;7.150;2022-07-19T10:34:00;6.70;;;2.15;;
20832;SDS011;56075;51.264;7.150;2022-07-19T10:36:43;3.25;;;1.88;;
20832;SDS011;56075;51.264;7.150;2022-07-19T10:50:14;3.95;;;1.80;;
20832;SDS011;56075;51.264;7.150;2022-07-19T10:52:50;7.10;;;2.13;;
20832;SDS011;56075;51.264;7.150;2022-07-19T11:00:48;3.03;;;1.90;;
20832;SDS011;56075;51.264;7.150;2022-07-19T11:05:52;4.40;;;1.95;;
20832;SDS011;56075;51.264;7.150;2022-07-19T11:08:34;4.28;;;1.63;;
20832;SDS011;56075;51.264;7.150;2022-07-19T11:11:15;3.63;;;1.70;;
20832;SDS011;56075;51.264;7.150;2022-07-19T11:13:49;5.13;;;1.90;;
20832;SDS011;56075;51.264;7.150;2022-07-19T11:16:23;5.03;;;1.67;;
20832;SDS011;56075;51.264;7.150;2022-07-19T11:19:02;8.05;;;1.83;;
20832;SDS011;56075;51.264;7.150;2022-07-19T11:21:35;3.53;;;1.80;;
20832;SDS011;56075;51.264;7.150;2022-07-19T11:24:07;3.17;;;1.40;;
20832;SDS011;56075;51.264;7.150;2022-07-19T11:26:39;3.50;;;1.88;;
20832;SDS011;56075;51.264;7.150;2022-07-19T11:29:11;2.38;;;1.75;;
20832;SDS011;56075;51.264;7.150;2022-07-19T11:31:45;5.85;;;1.67;;
20832;SDS011;56075;51.264;7.150;2022-07-19T11:34:20;5.60;;;1.95;;
20832;SDS011;56075;51.264;7.150;2022-07-19T11:36:57;7.28;;;2.00;;
20832;SDS011;56075;51.264;7.150;2022-07-19T11:39:45;5.40;;;1.63;;
20832;SDS011;56075;51.264;7.150;2022-07-19T11:42:27;3.17;;;1.70;;
20832;SDS011;56075;51.264;7.150;2022-07-19T11:45:10;3.78;;;1.60;;
20832;SDS011;56075;51.264;7.150;2022-07-19T11:47:52;5.57;;;2.33;;
20832;SDS011;56075;51.264;7.150;2022-07-19T11:50:26;5.78;;;2.10;;
20832;SDS011;56075;51.264;7.150;2022-07-19T11:52:58;5.00;;;1.83;;
20832;SDS011;56075;51.264;7.150;2022-07-19T11:55:37;4.93;;;1.80;;
20832;SDS011;56075;51.264;7.150;2022-07-19T11:58:09;4.53;;;1.88;;
20832;SDS011;56075;51.264;7.150;2022-07-19T12:00:41;3.33;;;1.60;;
20832;SDS011;56075;51.264;7.150;2022-07-19T12:03:15;3.42;;;2.00;;
20832;SDS011;56075;51.264;7.150;2022-07-19T12:06:01;4.57;;;2.20;;
20832;SDS011;56075;51.264;7.150;2022-07-19T12:08:41;6.13;;;2.00;;
20832;SDS011;56075;51.264;7.150;2022-07-19T12:11:15;4.43;;;2.10;;
20832;SDS011;56075;51.264;7.150;2022-07-19T12:13:54;5.72;;;1.90;;
20832;SDS011;56075;51.264;7.150;2022-07-19T12:16:26;5.85;;;2.08;;
20832;SDS011;56075;51.264;7.150;2022-07-19T12:19:00;3.83;;;1.98;;
20832;SDS011;56075;51.264;7.150;2022-07-19T12:24:18;2.22;;;1.65;;
20832;SDS011;56075;51.264;7.150;2022-07-19T12:31:59;5.28;;;2.00;;
20832;SDS011;56075;51.264;7.150;2022-07-19T12:34:46;5.18;;;1.95;;
20832;SDS011;56075;51.264;7.150;2022-07-19T12:37:23;2.88;;;1.90;;
20832;SDS011;56075;51.264;7.150;2022-07-19T12:40:41;6.20;;;1.98;;
20832;SDS011;56075;51.264;7.150;2022-07-19T12:42:57;3.28;;;2.00;;
20832;SDS011;56075;51.264;7.150;2022-07-19T12:45:37;4.10;;;1.77;;
20832;SDS011;56075;51.264;7.150;2022-07-19T12:48:12;6.10;;;1.90;;
20832;SDS011;56075;51.264;7.150;2022-07-19T12:50:47;3.17;;;1.50;;
20832;SDS011;56075;51.264;7.150;2022-07-19T12:53:19;4.70;;;2.00;;
20832;SDS011;56075;51.264;7.150;2022-07-19T12:55:51;6.22;;;1.90;;
20832;SDS011;56075;51.264;7.150;2022-07-19T12:58:22;5.68;;;1.70;;
20832;SDS011;56075;51.264;7.150;2022-07-19T13:01:12;4.60;;;2.00;;
20832;SDS011;56075;51.264;7.150;2022-07-19T13:03:43;8.77;;;2.20;;
20832;SDS011;56075;51.264;7.150;2022-07-19T13:06:15;3.85;;;1.98;;
20832;SDS011;56075;51.264;7.150;2022-07-19T13:08:46;4.10;;;1.80;;
20832;SDS011;56075;51.264;7.150;2022-07-19T13:11:18;4.57;;;1.60;;
20832;SDS011;56075;51.264;7.150;2022-07-19T13:13:49;4.18;;;1.65;;
20832;SDS011;56075;51.264;7.150;2022-07-19T13:16:20;6.05;;;1.88;;
20832;SDS011;56075;51.264;7.150;2022-07-19T13:18:52;4.63;;;1.90;;
20832;SDS011;56075;51.264;7.150;2022-07-19T13:21:24;5.10;;;1.60;;
20832;SDS011;56075;51.264;7.150;2022-07-19T13:23:57;5.90;;;2.00;;
20832;SDS011;56075;51.264;7.150;2022-07-19T13:26:28;5.65;;;1.90;;
20832;SDS011;56075;51.264;7.150;2022-07-19T13:28:59;4.55;;;1.73;;
20832;SDS011;56075;51.264;7.150;2022-07-19T13:31:34;3.17;;;1.65;;
20832;SDS011;56075;51.264;7.150;2022-07-19T13:34:06;3.95;;;1.95;;
20832;SDS011;56075;51.264;7.150;2022-07-19T13:36:38;4.07;;;1.75;;
20832;SDS011;56075;51.264;7.150;2022-07-19T13:39:09;2.80;;;1.48;;
20832;SDS011;56075;51.264;7.150;2022-07-19T13:41:42;3.42;;;1.70;;
20832;SDS011;56075;51.264;7.150;2022-07-19T13:44:13;4.75;;;1.77;;
20832;SDS011;56075;51.264;7.150;2022-07-19T13:46:44;2.20;;;1.48;;
20832;SDS011;56075;51.264;7.150;2022-07-19T13:49:16;5.60;;;1.70;;
20832;SDS011;56075;51.264;7.150;2022-07-19T13:51:47;5.82;;;1.65;;
20832;SDS011;56075;51.264;7.150;2022-07-19T13:54:18;4.40;;;1.80;;
20832;SDS011;56075;51.264;7.150;2022-07-19T13:56:52;6.50;;;1.63;;
20832;SDS011;56075;51.264;7.150;2022-07-19T13:59:24;4.78;;;1.80;;
20832;SDS011;56075;51.264;7.150;2022-07-19T14:01:57;2.15;;;1.50;;
20832;SDS011;56075;51.264;7.150;2022-07-19T14:04:29;4.25;;;1.70;;
20832;SDS011;56075;51.264;7.150;2022-07-19T14:07:00;3.72;;;1.77;;
20832;SDS011;56075;51.264;7.150;2022-07-19T14:09:34;2.40;;;1.70;;
20832;SDS011;56075;51.264;7.150;2022-07-19T14:12:07;3.60;;;1.70;;
20832;SDS011;56075;51.264;7.150;2022-07-19T14:14:38;2.95;;;1.63;;
20832;SDS011;56075;51.264;7.150;2022-07-19T14:17:10;12.27;;;1.80;;
20832;SDS011;56075;51.264;7.150;2022-07-19T14:19:41;4.65;;;1.60;;
20832;SDS011;56075;51.264;7.150;2022-07-19T14:22:13;4.10;;;1.90;;
20832;SDS011;56075;51.264;7.150;2022-07-19T14:24:54;3.10;;;1.67;;
20832;SDS011;56075;51.264;7.150;2022-07-19T14:27:25;3.40;;;1.83;;
20832;SDS011;56075;51.264;7.150;2022-07-19T14:29:56;3.78;;;1.92;;
20832;SDS011;56075;51.264;7.150;2022-07-19T14:32:28;4.50;;;1.83;;
20832;SDS011;56075;51.264;7.150;2022-07-19T14:34:59;3.92;;;1.90;;
20832;SDS011;56075;51.264;7.150;2022-07-19T14:37:34;4.65;;;2.10;;
20832;SDS011;56075;51.264;7.150;2022-07-19T14:40:06;4.32;;;1.80;;
20832;SDS011;56075;51.264;7.150;2022-07-19T14:42:38;3.33;;;2.10;;
20832;SDS011;56075;51.264;7.150;2022-07-19T14:45:10;4.10;;;1.88;;
20832;SDS011;56075;51.264;7.150;2022-07-19T14:47:42;7.68;;;2.10;;
20832;SDS011;56075;51.264;7.150;2022-07-19T14:50:13;2.72;;;1.75;;
20832;SDS011;56075;51.264;7.150;2022-07-19T14:52:45;3.95;;;2.30;;
20832;SDS011;56075;51.264;7.150;2022-07-19T14:55:16;3.50;;;1.77;;
20832;SDS011;56075;51.264;7.150;2022-07-19T14:57:47;5.18;;;2.20;;
20832;SDS011;56075;51.264;7.150;2022-07-19T15:00:19;3.63;;;2.17;;
20832;SDS011;56075;51.264;7.150;2022-07-19T15:02:50;5.55;;;1.73;;
20832;SDS011;56075;51.264;7.150;2022-07-19T15:05:22;4.07;;;2.00;;
20832;SDS011;56075;51.264;7.150;2022-07-19T15:07:53;5.72;;;1.90;;
20832;SDS011;56075;51.264;7.150;2022-07-19T15:10:24;7.93;;;2.17;;
20832;SDS011;56075;51.264;7.150;2022-07-19T15:12:56;6.25;;;2.00;;
20832;SDS011;56075;51.264;7.150;2022-07-19T15:15:27;4.20;;;1.95;;
20832;SDS011;56075;51.264;7.150;2022-07-19T15:17:59;3.33;;;1.77;;
20832;SDS011;56075;51.264;7.150;2022-07-19T15:20:30;3.80;;;1.70;;
20832;SDS011;56075;51.264;7.150;2022-07-19T15:23:01;5.70;;;1.70;;
20832;SDS011;56075;51.264;7.150;2022-07-19T15:25:34;3.85;;;2.03;;
20832;SDS011;56075;51.264;7.150;2022-07-19T15:28:05;6.45;;;1.90;;
20832;SDS011;56075;51.264;7.150;2022-07-19T15:30:37;3.70;;;1.50;;
20832;SDS011;56075;51.264;7.150;2022-07-19T15:33:08;5.55;;;1.77;;
20832;SDS011;56075;51.264;7.150;2022-07-19T15:35:40;7.80;;;2.05;;
20832;SDS011;56075;51.264;7.150;2022-07-19T15:38:11;3.92;;;1.75;;
20832;SDS011;56075;51.264;7.150;2022-07-19T15:40:43;5.35;;;2.00;;
20832;SDS011;56075;51.264;7.150;2022-07-19T15:43:15;4.68;;;2.15;;
20832;SDS011;56075;51.264;7.150;2022-07-19T15:45:47;3.35;;;2.13;;